sensor_id;sensor_type;location;lat;lon;timestamp;P1;durP1;ratioP1;P2;durP2;ratioP2
59169;SDS011;52474;52.236;5.114;2023-05-29T00:00:12;16.75;;;3.15;;
59169;SDS011;52474;52.236;5.114;2023-05-29T00:02:46;17.30;;;3.72;;
59169;SDS011;52474;52.236;5.114;2023-05-29T00:05:17;21.35;;;3.35;;
59169;SDS011;52474;52.236;5.114;2023-05-29T00:07:43;14.38;;;2.90;;
59169;SDS011;52474;52.236;5.114;2023-05-29T00:10:10;16.77;;;3.03;;
59169;SDS011;52474;52.236;5.114;2023-05-29T00:12:37;17.85;;;3.38;;
59169;SDS011;52474;52.236;5.114;2023-05-29T00:15:04;21.63;;;3.00;;
59169;SDS011;52474;52.236;5.114;2023-05-29T00:17:30;12.95;;;3.28;;
59169;SDS011;52474;52.236;5.114;2023-05-29T00:20:00;14.63;;;2.97;;
59169;SDS011;52474;52.236;5.114;2023-05-29T00:22:28;14.73;;;2.70;;
59169;SDS011;52474;52.236;5.114;2023-05-29T00:24:54;20.35;;;2.83;;
59169;SDS011;52474;52.236;5.114;2023-05-29T00:27:20;9.00;;;2.42;;
59169;SDS011;52474;52.236;5.114;2023-05-29T00:29:45;15.18;;;3.22;;
59169;SDS011;52474;52.236;5.114;2023-05-29T00:32:11;21.33;;;2.72;;
59169;SDS011;52474;52.236;5.114;2023-05-29T00:34:37;12.23;;;2.60;;
59169;SDS011;52474;52.236;5.114;2023-05-29T00:37:03;15.23;;;2.40;;
59169;SDS011;52474;52.236;5.114;2023-05-29T00:39:29;17.77;;;2.90;;
59169;SDS011;52474;52.236;5.114;2023-05-29T00:41:56;14.93;;;2.90;;
59169;SDS011;52474;52.236;5.114;2023-05-29T00:44:22;13.60;;;3.22;;
59169;SDS011;52474;52.236;5.114;2023-05-29T00:46:49;17.17;;;2.83;;
59169;SDS011;52474;52.236;5.114;2023-05-29T00:49:18;16.23;;;2.63;;
59169;SDS011;52474;52.236;5.114;2023-05-29T00:51:47;13.35;;;2.53;;
59169;SDS011;52474;52.236;5.114;2023-05-29T00:54:14;12.98;;;2.38;;
59169;SDS011;52474;52.236;5.114;2023-05-29T00:56:46;16.05;;;2.35;;
59169;SDS011;52474;52.236;5.114;2023-05-29T00:59:12;12.43;;;2.47;;
59169;SDS011;52474;52.236;5.114;2023-05-29T01:01:39;13.15;;;2.40;;
59169;SDS011;52474;52.236;5.114;2023-05-29T01:04:05;15.27;;;2.58;;
59169;SDS011;52474;52.236;5.114;2023-05-29T01:06:35;12.95;;;1.95;;
59169;SDS011;52474;52.236;5.114;2023-05-29T01:09:00;13.82;;;2.70;;
59169;SDS011;52474;52.236;5.114;2023-05-29T01:11:41;10.80;;;1.90;;
59169;SDS011;52474;52.236;5.114;2023-05-29T01:14:32;17.50;;;1.85;;
59169;SDS011;52474;52.236;5.114;2023-05-29T01:28:33;15.02;;;2.67;;
59169;SDS011;52474;52.236;5.114;2023-05-29T01:31:07;17.88;;;2.33;;
59169;SDS011;52474;52.236;5.114;2023-05-29T01:33:37;15.40;;;2.92;;
59169;SDS011;52474;52.236;5.114;2023-05-29T01:36:05;13.52;;;2.40;;
59169;SDS011;52474;52.236;5.114;2023-05-29T01:38:33;8.95;;;1.95;;
59169;SDS011;52474;52.236;5.114;2023-05-29T01:40:59;9.45;;;2.13;;
59169;SDS011;52474;52.236;5.114;2023-05-29T01:43:26;8.23;;;2.03;;
59169;SDS011;52474;52.236;5.114;2023-05-29T01:45:52;18.80;;;2.58;;
59169;SDS011;52474;52.236;5.114;2023-05-29T01:48:18;11.45;;;2.60;;
59169;SDS011;52474;52.236;5.114;2023-05-29T01:50:44;19.85;;;2.50;;
59169;SDS011;52474;52.236;5.114;2023-05-29T01:53:11;10.88;;;3.13;;
59169;SDS011;52474;52.236;5.114;2023-05-29T01:55:37;17.63;;;2.40;;
59169;SDS011;52474;52.236;5.114;2023-05-29T01:58:02;14.00;;;2.28;;
59169;SDS011;52474;52.236;5.114;2023-05-29T02:00:30;15.77;;;2.20;;
59169;SDS011;52474;52.236;5.114;2023-05-29T02:02:56;16.40;;;2.55;;
59169;SDS011;52474;52.236;5.114;2023-05-29T02:05:22;12.80;;;2.40;;
59169;SDS011;52474;52.236;5.114;2023-05-29T02:07:47;19.88;;;2.53;;
59169;SDS011;52474;52.236;5.114;2023-05-29T02:10:13;12.93;;;2.13;;
59169;SDS011;52474;52.236;5.114;2023-05-29T02:12:39;10.73;;;2.20;;
59169;SDS011;52474;52.236;5.114;2023-05-29T02:15:05;14.50;;;2.47;;
59169;SDS011;52474;52.236;5.114;2023-05-29T02:17:32;13.10;;;2.53;;
59169;SDS011;52474;52.236;5.114;2023-05-29T02:19:59;11.02;;;2.20;;
59169;SDS011;52474;52.236;5.114;2023-05-29T02:22:26;17.08;;;2.88;;
59169;SDS011;52474;52.236;5.114;2023-05-29T02:24:51;16.38;;;2.08;;
59169;SDS011;52474;52.236;5.114;2023-05-29T02:27:17;12.55;;;2.70;;
59169;SDS011;52474;52.236;5.114;2023-05-29T02:29:43;10.50;;;2.13;;
59169;SDS011;52474;52.236;5.114;2023-05-29T02:32:09;9.98;;;1.98;;
59169;SDS011;52474;52.236;5.114;2023-05-29T02:34:35;17.50;;;2.78;;
59169;SDS011;52474;52.236;5.114;2023-05-29T02:37:01;10.10;;;2.08;;
59169;SDS011;52474;52.236;5.114;2023-05-29T02:39:27;13.35;;;2.08;;
59169;SDS011;52474;52.236;5.114;2023-05-29T02:41:53;9.93;;;1.75;;
59169;SDS011;52474;52.236;5.114;2023-05-29T02:44:20;12.07;;;2.38;;
59169;SDS011;52474;52.236;5.114;2023-05-29T02:46:46;11.25;;;1.92;;
59169;SDS011;52474;52.236;5.114;2023-05-29T02:49:14;14.82;;;2.08;;
59169;SDS011;52474;52.236;5.114;2023-05-29T02:51:39;13.20;;;1.80;;
59169;SDS011;52474;52.236;5.114;2023-05-29T02:54:05;12.60;;;2.67;;
59169;SDS011;52474;52.236;5.114;2023-05-29T02:56:31;16.08;;;3.13;;
59169;SDS011;52474;52.236;5.114;2023-05-29T02:58:57;9.80;;;2.10;;
59169;SDS011;52474;52.236;5.114;2023-05-29T03:01:22;10.88;;;2.40;;
59169;SDS011;52474;52.236;5.114;2023-05-29T03:03:48;11.57;;;2.20;;
59169;SDS011;52474;52.236;5.114;2023-05-29T03:06:14;12.52;;;2.03;;
59169;SDS011;52474;52.236;5.114;2023-05-29T03:08:41;14.23;;;2.38;;
59169;SDS011;52474;52.236;5.114;2023-05-29T03:11:10;12.57;;;2.10;;
59169;SDS011;52474;52.236;5.114;2023-05-29T03:13:37;12.98;;;2.10;;
59169;SDS011;52474;52.236;5.114;2023-05-29T03:16:06;14.48;;;2.80;;
59169;SDS011;52474;52.236;5.114;2023-05-29T03:18:34;10.15;;;2.45;;
59169;SDS011;52474;52.236;5.114;2023-05-29T03:21:00;14.27;;;2.15;;
59169;SDS011;52474;52.236;5.114;2023-05-29T03:23:27;12.30;;;2.08;;
59169;SDS011;52474;52.236;5.114;2023-05-29T03:25:53;10.50;;;2.03;;
59169;SDS011;52474;52.236;5.114;2023-05-29T03:28:19;15.02;;;2.22;;
59169;SDS011;52474;52.236;5.114;2023-05-29T03:30:46;13.45;;;2.55;;
59169;SDS011;52474;52.236;5.114;2023-05-29T03:33:15;15.23;;;2.72;;
59169;SDS011;52474;52.236;5.114;2023-05-29T03:35:56;12.80;;;2.25;;
59169;SDS011;52474;52.236;5.114;2023-05-29T03:38:22;14.77;;;2.33;;
59169;SDS011;52474;52.236;5.114;2023-05-29T03:40:49;17.50;;;2.63;;
59169;SDS011;52474;52.236;5.114;2023-05-29T03:43:14;14.38;;;2.03;;
59169;SDS011;52474;52.236;5.114;2023-05-29T03:45:41;15.45;;;2.63;;
59169;SDS011;52474;52.236;5.114;2023-05-29T03:48:07;13.05;;;2.00;;
59169;SDS011;52474;52.236;5.114;2023-05-29T03:50:32;9.05;;;2.22;;
59169;SDS011;52474;52.236;5.114;2023-05-29T03:52:58;9.52;;;2.35;;
59169;SDS011;52474;52.236;5.114;2023-05-29T03:55:25;10.27;;;1.98;;
59169;SDS011;52474;52.236;5.114;2023-05-29T03:57:52;10.27;;;2.78;;
59169;SDS011;52474;52.236;5.114;2023-05-29T04:00:18;13.73;;;2.30;;
59169;SDS011;52474;52.236;5.114;2023-05-29T04:02:46;10.15;;;1.90;;
59169;SDS011;52474;52.236;5.114;2023-05-29T04:05:12;15.02;;;2.20;;
59169;SDS011;52474;52.236;5.114;2023-05-29T04:07:39;12.80;;;2.50;;
59169;SDS011;52474;52.236;5.114;2023-05-29T04:10:07;13.20;;;2.53;;
59169;SDS011;52474;52.236;5.114;2023-05-29T04:12:33;15.38;;;3.10;;
59169;SDS011;52474;52.236;5.114;2023-05-29T04:14:59;11.00;;;2.17;;
59169;SDS011;52474;52.236;5.114;2023-05-29T04:17:25;11.77;;;2.35;;
59169;SDS011;52474;52.236;5.114;2023-05-29T04:19:51;12.07;;;2.35;;
59169;SDS011;52474;52.236;5.114;2023-05-29T04:22:17;12.00;;;2.58;;
59169;SDS011;52474;52.236;5.114;2023-05-29T04:24:43;15.20;;;2.22;;
59169;SDS011;52474;52.236;5.114;2023-05-29T04:27:09;20.48;;;2.70;;
59169;SDS011;52474;52.236;5.114;2023-05-29T04:29:39;13.07;;;2.22;;
59169;SDS011;52474;52.236;5.114;2023-05-29T04:32:08;16.33;;;2.58;;
59169;SDS011;52474;52.236;5.114;2023-05-29T04:34:37;14.70;;;2.63;;
59169;SDS011;52474;52.236;5.114;2023-05-29T04:37:12;11.00;;;2.28;;
59169;SDS011;52474;52.236;5.114;2023-05-29T04:39:39;15.65;;;2.50;;
59169;SDS011;52474;52.236;5.114;2023-05-29T04:42:06;12.25;;;2.25;;
59169;SDS011;52474;52.236;5.114;2023-05-29T04:44:33;19.00;;;3.40;;
59169;SDS011;52474;52.236;5.114;2023-05-29T04:46:59;13.55;;;2.47;;
59169;SDS011;52474;52.236;5.114;2023-05-29T04:49:28;13.93;;;2.80;;
59169;SDS011;52474;52.236;5.114;2023-05-29T04:51:54;10.18;;;2.72;;
59169;SDS011;52474;52.236;5.114;2023-05-29T04:54:21;12.35;;;2.33;;
59169;SDS011;52474;52.236;5.114;2023-05-29T04:56:51;13.63;;;2.75;;
59169;SDS011;52474;52.236;5.114;2023-05-29T04:59:21;15.48;;;2.40;;
59169;SDS011;52474;52.236;5.114;2023-05-29T05:01:47;7.18;;;2.08;;
59169;SDS011;52474;52.236;5.114;2023-05-29T05:04:13;10.77;;;2.17;;
59169;SDS011;52474;52.236;5.114;2023-05-29T05:06:39;12.88;;;2.17;;
59169;SDS011;52474;52.236;5.114;2023-05-29T05:09:05;15.85;;;3.00;;
59169;SDS011;52474;52.236;5.114;2023-05-29T05:11:31;12.43;;;2.70;;
59169;SDS011;52474;52.236;5.114;2023-05-29T05:13:57;13.43;;;2.60;;
59169;SDS011;52474;52.236;5.114;2023-05-29T05:16:23;23.05;;;2.70;;
59169;SDS011;52474;52.236;5.114;2023-05-29T05:18:49;16.83;;;2.97;;
59169;SDS011;52474;52.236;5.114;2023-05-29T05:21:15;16.58;;;2.80;;
59169;SDS011;52474;52.236;5.114;2023-05-29T05:23:41;13.38;;;2.88;;
59169;SDS011;52474;52.236;5.114;2023-05-29T05:26:09;19.40;;;3.17;;
59169;SDS011;52474;52.236;5.114;2023-05-29T05:28:35;18.73;;;2.58;;
59169;SDS011;52474;52.236;5.114;2023-05-29T05:31:01;16.05;;;2.45;;
59169;SDS011;52474;52.236;5.114;2023-05-29T05:33:30;16.02;;;2.50;;
59169;SDS011;52474;52.236;5.114;2023-05-29T05:35:56;15.00;;;2.45;;
59169;SDS011;52474;52.236;5.114;2023-05-29T05:38:21;15.18;;;2.20;;
59169;SDS011;52474;52.236;5.114;2023-05-29T05:40:47;16.30;;;2.30;;
59169;SDS011;52474;52.236;5.114;2023-05-29T05:43:21;11.77;;;2.55;;
59169;SDS011;52474;52.236;5.114;2023-05-29T05:46:13;9.63;;;1.95;;
59169;SDS011;52474;52.236;5.114;2023-05-29T05:48:41;12.30;;;2.80;;
59169;SDS011;52474;52.236;5.114;2023-05-29T05:51:08;14.43;;;2.78;;
59169;SDS011;52474;52.236;5.114;2023-05-29T05:53:34;14.27;;;2.60;;
59169;SDS011;52474;52.236;5.114;2023-05-29T05:55:59;10.10;;;2.88;;
59169;SDS011;52474;52.236;5.114;2023-05-29T05:58:26;12.68;;;2.50;;
59169;SDS011;52474;52.236;5.114;2023-05-29T06:00:52;11.50;;;2.40;;
59169;SDS011;52474;52.236;5.114;2023-05-29T06:03:18;12.60;;;2.78;;
59169;SDS011;52474;52.236;5.114;2023-05-29T06:05:56;11.25;;;2.38;;
59169;SDS011;52474;52.236;5.114;2023-05-29T06:08:22;10.02;;;3.40;;
59169;SDS011;52474;52.236;5.114;2023-05-29T06:10:48;12.50;;;2.55;;
59169;SDS011;52474;52.236;5.114;2023-05-29T06:13:15;12.40;;;2.58;;
59169;SDS011;52474;52.236;5.114;2023-05-29T06:15:47;13.02;;;2.70;;
59169;SDS011;52474;52.236;5.114;2023-05-29T06:18:13;10.85;;;2.10;;
59169;SDS011;52474;52.236;5.114;2023-05-29T06:20:39;15.68;;;2.63;;
59169;SDS011;52474;52.236;5.114;2023-05-29T06:23:06;13.57;;;2.38;;
59169;SDS011;52474;52.236;5.114;2023-05-29T06:25:32;11.93;;;2.65;;
59169;SDS011;52474;52.236;5.114;2023-05-29T06:28:00;10.65;;;2.05;;
59169;SDS011;52474;52.236;5.114;2023-05-29T06:30:27;14.65;;;2.38;;
59169;SDS011;52474;52.236;5.114;2023-05-29T06:32:53;9.63;;;2.13;;
59169;SDS011;52474;52.236;5.114;2023-05-29T06:35:23;13.23;;;2.95;;
59169;SDS011;52474;52.236;5.114;2023-05-29T06:37:49;13.50;;;2.20;;
59169;SDS011;52474;52.236;5.114;2023-05-29T06:40:24;12.85;;;2.78;;
59169;SDS011;52474;52.236;5.114;2023-05-29T06:42:50;12.75;;;2.33;;
59169;SDS011;52474;52.236;5.114;2023-05-29T06:45:15;8.52;;;2.47;;
59169;SDS011;52474;52.236;5.114;2023-05-29T06:47:41;12.23;;;2.50;;
59169;SDS011;52474;52.236;5.114;2023-05-29T06:50:08;10.55;;;2.22;;
59169;SDS011;52474;52.236;5.114;2023-05-29T06:52:36;12.30;;;2.10;;
59169;SDS011;52474;52.236;5.114;2023-05-29T06:55:25;8.65;;;2.05;;
59169;SDS011;52474;52.236;5.114;2023-05-29T06:57:53;10.85;;;2.30;;
59169;SDS011;52474;52.236;5.114;2023-05-29T07:00:19;8.38;;;1.92;;
59169;SDS011;52474;52.236;5.114;2023-05-29T07:02:55;8.05;;;1.55;;
59169;SDS011;52474;52.236;5.114;2023-05-29T07:05:21;10.40;;;2.30;;
59169;SDS011;52474;52.236;5.114;2023-05-29T07:07:46;10.48;;;2.40;;
59169;SDS011;52474;52.236;5.114;2023-05-29T07:10:12;9.25;;;2.75;;
59169;SDS011;52474;52.236;5.114;2023-05-29T07:12:38;10.68;;;2.22;;
59169;SDS011;52474;52.236;5.114;2023-05-29T07:15:04;7.63;;;1.90;;
59169;SDS011;52474;52.236;5.114;2023-05-29T07:17:33;9.32;;;2.20;;
59169;SDS011;52474;52.236;5.114;2023-05-29T07:20:10;7.57;;;2.30;;
59169;SDS011;52474;52.236;5.114;2023-05-29T07:22:37;8.32;;;2.45;;
59169;SDS011;52474;52.236;5.114;2023-05-29T07:25:04;9.15;;;1.90;;
59169;SDS011;52474;52.236;5.114;2023-05-29T07:27:30;9.27;;;2.30;;
59169;SDS011;52474;52.236;5.114;2023-05-29T07:29:56;10.90;;;2.20;;
59169;SDS011;52474;52.236;5.114;2023-05-29T07:32:23;10.23;;;2.70;;
59169;SDS011;52474;52.236;5.114;2023-05-29T07:34:49;6.30;;;1.90;;
59169;SDS011;52474;52.236;5.114;2023-05-29T07:37:16;10.45;;;2.55;;
59169;SDS011;52474;52.236;5.114;2023-05-29T07:39:45;8.25;;;2.20;;
59169;SDS011;52474;52.236;5.114;2023-05-29T07:42:34;8.68;;;2.60;;
59169;SDS011;52474;52.236;5.114;2023-05-29T07:45:01;10.02;;;2.28;;
59169;SDS011;52474;52.236;5.114;2023-05-29T07:47:31;9.18;;;2.05;;
59169;SDS011;52474;52.236;5.114;2023-05-29T07:49:57;9.20;;;2.80;;
59169;SDS011;52474;52.236;5.114;2023-05-29T07:52:25;7.57;;;2.10;;
59169;SDS011;52474;52.236;5.114;2023-05-29T07:54:52;9.50;;;2.22;;
59169;SDS011;52474;52.236;5.114;2023-05-29T07:57:18;11.18;;;2.50;;
59169;SDS011;52474;52.236;5.114;2023-05-29T07:59:46;9.38;;;2.58;;
59169;SDS011;52474;52.236;5.114;2023-05-29T08:02:15;11.47;;;2.40;;
59169;SDS011;52474;52.236;5.114;2023-05-29T08:04:52;10.15;;;2.58;;
59169;SDS011;52474;52.236;5.114;2023-05-29T08:07:19;7.22;;;1.80;;
59169;SDS011;52474;52.236;5.114;2023-05-29T08:09:44;9.82;;;2.22;;
59169;SDS011;52474;52.236;5.114;2023-05-29T08:12:10;9.85;;;2.75;;
59169;SDS011;52474;52.236;5.114;2023-05-29T08:14:36;8.23;;;2.30;;
59169;SDS011;52474;52.236;5.114;2023-05-29T08:17:02;11.45;;;2.50;;
59169;SDS011;52474;52.236;5.114;2023-05-29T08:19:28;8.27;;;2.17;;
59169;SDS011;52474;52.236;5.114;2023-05-29T08:21:54;9.55;;;2.38;;
59169;SDS011;52474;52.236;5.114;2023-05-29T08:24:19;9.65;;;2.53;;
59169;SDS011;52474;52.236;5.114;2023-05-29T08:26:45;7.47;;;2.17;;
59169;SDS011;52474;52.236;5.114;2023-05-29T08:29:11;6.97;;;2.03;;
59169;SDS011;52474;52.236;5.114;2023-05-29T08:31:36;8.52;;;1.95;;
59169;SDS011;52474;52.236;5.114;2023-05-29T08:34:02;9.57;;;2.45;;
59169;SDS011;52474;52.236;5.114;2023-05-29T08:36:28;8.98;;;2.30;;
59169;SDS011;52474;52.236;5.114;2023-05-29T08:38:54;8.88;;;2.10;;
59169;SDS011;52474;52.236;5.114;2023-05-29T08:41:31;8.93;;;2.38;;
59169;SDS011;52474;52.236;5.114;2023-05-29T08:44:32;6.88;;;2.13;;
59169;SDS011;52474;52.236;5.114;2023-05-29T08:47:00;8.95;;;2.45;;
59169;SDS011;52474;52.236;5.114;2023-05-29T08:49:40;9.80;;;1.83;;
59169;SDS011;52474;52.236;5.114;2023-05-29T08:52:14;9.70;;;2.30;;
59169;SDS011;52474;52.236;5.114;2023-05-29T08:54:41;7.25;;;2.03;;
59169;SDS011;52474;52.236;5.114;2023-05-29T08:57:09;7.38;;;2.08;;
59169;SDS011;52474;52.236;5.114;2023-05-29T08:59:36;7.57;;;2.33;;
59169;SDS011;52474;52.236;5.114;2023-05-29T09:02:04;8.95;;;2.03;;
59169;SDS011;52474;52.236;5.114;2023-05-29T09:04:31;10.50;;;2.33;;
59169;SDS011;52474;52.236;5.114;2023-05-29T09:06:57;7.35;;;2.30;;
59169;SDS011;52474;52.236;5.114;2023-05-29T09:09:24;8.15;;;2.10;;
59169;SDS011;52474;52.236;5.114;2023-05-29T09:11:52;10.93;;;2.55;;
59169;SDS011;52474;52.236;5.114;2023-05-29T09:17:04;8.38;;;2.10;;
59169;SDS011;52474;52.236;5.114;2023-05-29T09:19:32;7.57;;;2.05;;
59169;SDS011;52474;52.236;5.114;2023-05-29T09:22:02;11.35;;;2.50;;
59169;SDS011;52474;52.236;5.114;2023-05-29T09:24:29;7.38;;;2.00;;
59169;SDS011;52474;52.236;5.114;2023-05-29T09:26:58;6.80;;;2.28;;
59169;SDS011;52474;52.236;5.114;2023-05-29T09:29:24;7.68;;;2.03;;
59169;SDS011;52474;52.236;5.114;2023-05-29T09:31:50;12.20;;;2.35;;
59169;SDS011;52474;52.236;5.114;2023-05-29T09:34:16;9.30;;;2.53;;
59169;SDS011;52474;52.236;5.114;2023-05-29T09:36:41;6.95;;;2.33;;
59169;SDS011;52474;52.236;5.114;2023-05-29T09:39:07;7.22;;;2.50;;
59169;SDS011;52474;52.236;5.114;2023-05-29T09:41:43;6.78;;;2.33;;
59169;SDS011;52474;52.236;5.114;2023-05-29T09:44:12;10.43;;;2.78;;
59169;SDS011;52474;52.236;5.114;2023-05-29T09:46:42;6.90;;;2.30;;
59169;SDS011;52474;52.236;5.114;2023-05-29T09:49:10;12.48;;;2.75;;
59169;SDS011;52474;52.236;5.114;2023-05-29T09:51:38;8.27;;;2.25;;
59169;SDS011;52474;52.236;5.114;2023-05-29T09:54:17;9.25;;;2.90;;
59169;SDS011;52474;52.236;5.114;2023-05-29T09:56:43;6.43;;;2.17;;
59169;SDS011;52474;52.236;5.114;2023-05-29T09:59:16;14.65;;;2.90;;
59169;SDS011;52474;52.236;5.114;2023-05-29T10:01:43;9.80;;;2.92;;
59169;SDS011;52474;52.236;5.114;2023-05-29T10:04:10;10.80;;;2.70;;
59169;SDS011;52474;52.236;5.114;2023-05-29T10:06:36;9.13;;;2.85;;
59169;SDS011;52474;52.236;5.114;2023-05-29T10:09:05;7.65;;;2.50;;
59169;SDS011;52474;52.236;5.114;2023-05-29T10:11:35;10.43;;;3.08;;
59169;SDS011;52474;52.236;5.114;2023-05-29T10:14:06;8.43;;;2.83;;
59169;SDS011;52474;52.236;5.114;2023-05-29T10:16:39;9.35;;;2.80;;
59169;SDS011;52474;52.236;5.114;2023-05-29T10:19:12;11.90;;;2.95;;
59169;SDS011;52474;52.236;5.114;2023-05-29T10:21:41;9.32;;;2.80;;
59169;SDS011;52474;52.236;5.114;2023-05-29T10:24:09;11.23;;;2.77;;
59169;SDS011;52474;52.236;5.114;2023-05-29T10:26:37;9.65;;;2.80;;
59169;SDS011;52474;52.236;5.114;2023-05-29T10:31:38;11.82;;;2.92;;
59169;SDS011;52474;52.236;5.114;2023-05-29T10:34:18;10.95;;;3.08;;
59169;SDS011;52474;52.236;5.114;2023-05-29T10:39:46;13.35;;;3.20;;
59169;SDS011;52474;52.236;5.114;2023-05-29T10:48:35;11.75;;;2.80;;
59169;SDS011;52474;52.236;5.114;2023-05-29T10:50:54;10.35;;;2.97;;
59169;SDS011;52474;52.236;5.114;2023-05-29T10:53:30;12.98;;;3.92;;
59169;SDS011;52474;52.236;5.114;2023-05-29T10:55:58;12.63;;;3.25;;
59169;SDS011;52474;52.236;5.114;2023-05-29T10:58:25;7.18;;;2.90;;
59169;SDS011;52474;52.236;5.114;2023-05-29T11:00:52;10.45;;;3.40;;
59169;SDS011;52474;52.236;5.114;2023-05-29T11:03:22;12.18;;;3.33;;
59169;SDS011;52474;52.236;5.114;2023-05-29T11:08:32;9.93;;;2.95;;
59169;SDS011;52474;52.236;5.114;2023-05-29T11:11:02;11.02;;;3.05;;
59169;SDS011;52474;52.236;5.114;2023-05-29T11:13:32;11.40;;;3.63;;
59169;SDS011;52474;52.236;5.114;2023-05-29T11:18:42;12.55;;;3.15;;
59169;SDS011;52474;52.236;5.114;2023-05-29T11:21:15;11.63;;;3.72;;
59169;SDS011;52474;52.236;5.114;2023-05-29T11:24:23;13.35;;;3.47;;
59169;SDS011;52474;52.236;5.114;2023-05-29T11:26:51;9.50;;;3.38;;
59169;SDS011;52474;52.236;5.114;2023-05-29T11:29:24;11.18;;;3.25;;
59169;SDS011;52474;52.236;5.114;2023-05-29T11:31:57;15.07;;;3.45;;
59169;SDS011;52474;52.236;5.114;2023-05-29T11:34:27;17.45;;;3.60;;
59169;SDS011;52474;52.236;5.114;2023-05-29T11:36:56;14.95;;;3.97;;
59169;SDS011;52474;52.236;5.114;2023-05-29T11:39:23;14.63;;;3.80;;
59169;SDS011;52474;52.236;5.114;2023-05-29T11:41:50;12.05;;;3.30;;
59169;SDS011;52474;52.236;5.114;2023-05-29T11:44:17;14.70;;;3.67;;
59169;SDS011;52474;52.236;5.114;2023-05-29T11:46:43;8.80;;;2.80;;
59169;SDS011;52474;52.236;5.114;2023-05-29T11:49:08;12.38;;;4.20;;
59169;SDS011;52474;52.236;5.114;2023-05-29T11:51:34;14.75;;;3.75;;
59169;SDS011;52474;52.236;5.114;2023-05-29T11:54:00;29.88;;;4.28;;
59169;SDS011;52474;52.236;5.114;2023-05-29T11:56:26;15.10;;;3.55;;
59169;SDS011;52474;52.236;5.114;2023-05-29T11:58:53;10.15;;;3.40;;
59169;SDS011;52474;52.236;5.114;2023-05-29T12:01:22;10.13;;;3.08;;
59169;SDS011;52474;52.236;5.114;2023-05-29T12:03:50;10.00;;;3.08;;
59169;SDS011;52474;52.236;5.114;2023-05-29T12:06:16;11.57;;;3.20;;
59169;SDS011;52474;52.236;5.114;2023-05-29T12:08:56;11.32;;;2.70;;
59169;SDS011;52474;52.236;5.114;2023-05-29T12:11:24;12.23;;;3.20;;
59169;SDS011;52474;52.236;5.114;2023-05-29T12:14:00;9.37;;;3.10;;
59169;SDS011;52474;52.236;5.114;2023-05-29T12:16:26;12.07;;;3.25;;
59169;SDS011;52474;52.236;5.114;2023-05-29T12:18:53;13.70;;;3.97;;
59169;SDS011;52474;52.236;5.114;2023-05-29T12:21:21;11.57;;;3.25;;
59169;SDS011;52474;52.236;5.114;2023-05-29T12:23:47;12.10;;;3.47;;
59169;SDS011;52474;52.236;5.114;2023-05-29T12:26:14;11.02;;;2.80;;
59169;SDS011;52474;52.236;5.114;2023-05-29T12:28:47;12.23;;;3.22;;
59169;SDS011;52474;52.236;5.114;2023-05-29T12:31:14;8.20;;;2.83;;
59169;SDS011;52474;52.236;5.114;2023-05-29T12:33:52;8.03;;;3.03;;
59169;SDS011;52474;52.236;5.114;2023-05-29T12:36:18;12.55;;;2.90;;
59169;SDS011;52474;52.236;5.114;2023-05-29T12:58:46;14.32;;;3.40;;
59169;SDS011;52474;52.236;5.114;2023-05-29T13:01:12;14.05;;;2.97;;
59169;SDS011;52474;52.236;5.114;2023-05-29T13:03:41;15.53;;;3.47;;
59169;SDS011;52474;52.236;5.114;2023-05-29T13:06:06;11.30;;;3.00;;
59169;SDS011;52474;52.236;5.114;2023-05-29T13:08:32;13.75;;;3.05;;
59169;SDS011;52474;52.236;5.114;2023-05-29T13:10:58;11.98;;;3.35;;
59169;SDS011;52474;52.236;5.114;2023-05-29T13:13:24;11.32;;;3.30;;
59169;SDS011;52474;52.236;5.114;2023-05-29T13:15:49;11.88;;;3.28;;
59169;SDS011;52474;52.236;5.114;2023-05-29T13:18:15;13.40;;;3.33;;
59169;SDS011;52474;52.236;5.114;2023-05-29T13:20:41;16.13;;;3.45;;
59169;SDS011;52474;52.236;5.114;2023-05-29T13:23:06;17.52;;;4.38;;
59169;SDS011;52474;52.236;5.114;2023-05-29T13:25:34;12.45;;;3.35;;
59169;SDS011;52474;52.236;5.114;2023-05-29T13:28:00;14.20;;;3.47;;
59169;SDS011;52474;52.236;5.114;2023-05-29T13:30:25;10.45;;;3.20;;
59169;SDS011;52474;52.236;5.114;2023-05-29T13:32:52;12.07;;;3.75;;
59169;SDS011;52474;52.236;5.114;2023-05-29T13:35:18;12.23;;;2.95;;
59169;SDS011;52474;52.236;5.114;2023-05-29T13:37:44;11.23;;;2.97;;
59169;SDS011;52474;52.236;5.114;2023-05-29T13:40:10;14.52;;;3.38;;
59169;SDS011;52474;52.236;5.114;2023-05-29T13:42:38;14.60;;;3.28;;
59169;SDS011;52474;52.236;5.114;2023-05-29T13:45:05;12.02;;;3.10;;
59169;SDS011;52474;52.236;5.114;2023-05-29T13:47:32;12.38;;;3.10;;
59169;SDS011;52474;52.236;5.114;2023-05-29T13:49:58;11.65;;;3.30;;
59169;SDS011;52474;52.236;5.114;2023-05-29T13:52:25;11.88;;;2.80;;
59169;SDS011;52474;52.236;5.114;2023-05-29T13:54:54;9.52;;;2.95;;
59169;SDS011;52474;52.236;5.114;2023-05-29T13:57:20;11.82;;;3.47;;
59169;SDS011;52474;52.236;5.114;2023-05-29T13:59:45;10.23;;;2.90;;
59169;SDS011;52474;52.236;5.114;2023-05-29T14:02:14;12.50;;;2.78;;
59169;SDS011;52474;52.236;5.114;2023-05-29T14:04:41;12.15;;;3.00;;
59169;SDS011;52474;52.236;5.114;2023-05-29T14:07:07;10.85;;;3.05;;
59169;SDS011;52474;52.236;5.114;2023-05-29T14:09:34;11.88;;;2.75;;
59169;SDS011;52474;52.236;5.114;2023-05-29T14:12:00;15.73;;;3.65;;
59169;SDS011;52474;52.236;5.114;2023-05-29T14:14:27;14.02;;;3.17;;
59169;SDS011;52474;52.236;5.114;2023-05-29T14:16:53;13.10;;;2.90;;
59169;SDS011;52474;52.236;5.114;2023-05-29T14:19:21;10.43;;;2.70;;
59169;SDS011;52474;52.236;5.114;2023-05-29T14:21:48;10.77;;;2.80;;
59169;SDS011;52474;52.236;5.114;2023-05-29T14:24:17;12.70;;;2.92;;
59169;SDS011;52474;52.236;5.114;2023-05-29T14:26:44;10.63;;;3.25;;
59169;SDS011;52474;52.236;5.114;2023-05-29T14:29:12;16.60;;;3.03;;
59169;SDS011;52474;52.236;5.114;2023-05-29T14:31:42;10.52;;;2.70;;
59169;SDS011;52474;52.236;5.114;2023-05-29T14:34:08;15.27;;;3.17;;
59169;SDS011;52474;52.236;5.114;2023-05-29T14:36:35;12.50;;;2.80;;
59169;SDS011;52474;52.236;5.114;2023-05-29T14:39:02;10.57;;;2.75;;
59169;SDS011;52474;52.236;5.114;2023-05-29T14:41:29;9.65;;;2.67;;
59169;SDS011;52474;52.236;5.114;2023-05-29T14:43:55;12.77;;;2.47;;
59169;SDS011;52474;52.236;5.114;2023-05-29T14:46:24;19.60;;;4.88;;
59169;SDS011;52474;52.236;5.114;2023-05-29T14:48:51;12.93;;;3.10;;
59169;SDS011;52474;52.236;5.114;2023-05-29T14:51:20;7.95;;;2.97;;
59169;SDS011;52474;52.236;5.114;2023-05-29T14:53:46;12.20;;;3.13;;
59169;SDS011;52474;52.236;5.114;2023-05-29T14:56:12;9.48;;;2.83;;
59169;SDS011;52474;52.236;5.114;2023-05-29T14:58:37;13.95;;;3.17;;
59169;SDS011;52474;52.236;5.114;2023-05-29T15:01:03;12.57;;;3.13;;
59169;SDS011;52474;52.236;5.114;2023-05-29T15:03:30;11.20;;;2.83;;
59169;SDS011;52474;52.236;5.114;2023-05-29T15:05:55;16.08;;;2.92;;
59169;SDS011;52474;52.236;5.114;2023-05-29T15:08:22;9.10;;;2.67;;
59169;SDS011;52474;52.236;5.114;2023-05-29T15:10:48;11.48;;;2.85;;
59169;SDS011;52474;52.236;5.114;2023-05-29T15:13:14;10.20;;;2.92;;
59169;SDS011;52474;52.236;5.114;2023-05-29T15:15:40;13.90;;;2.85;;
59169;SDS011;52474;52.236;5.114;2023-05-29T15:18:05;13.10;;;2.83;;
59169;SDS011;52474;52.236;5.114;2023-05-29T15:20:32;14.35;;;3.17;;
59169;SDS011;52474;52.236;5.114;2023-05-29T15:23:01;12.65;;;2.55;;
59169;SDS011;52474;52.236;5.114;2023-05-29T15:25:26;10.20;;;2.83;;
59169;SDS011;52474;52.236;5.114;2023-05-29T15:27:52;10.18;;;2.47;;
59169;SDS011;52474;52.236;5.114;2023-05-29T15:30:19;13.45;;;3.00;;
59169;SDS011;52474;52.236;5.114;2023-05-29T15:32:45;13.95;;;3.60;;